LBWN

Varna Airport

Varna, Bulgaria
TAF LBWN 212300Z 2200/2224 VRB04KT 7000 SCT020 BECMG 2200/2202 3000 BR SCT010 PROB30 TEMPO 2202/2205 0600 BCFG SCT003 BECMG 2205/2207 8000 SCT015 BECMG 2209/2211 12010KT CAVOK
Issued Valid From Valid To
Sep-21 @ 23:00 UTC
(5 hours ago)
Sep-22 @ 00:00 UTC
(4 hours ago)
Sep-23 @ 00:00 UTC
(in 20 hours)
to
to
to
to
to
TAF LBWN 212300Z 2200/2224 VRB04KT 7000 SCT020 BECMG 2200/2202 3000 BR SCT010 PROB30 TEMPO 2202/2205 0600 BCFG SCT003 BECMG 2205/2207 8000 SCT015 BECMG 2209/2211 12010KT CAVOK
Issued Sep-21 @ 23:00 UTC
(5 hours ago)
Valid From Sep-22 @ 00:00 UTC
(4 hours ago)
Valid To Sep-23 @ 00:00 UTC
(in 20 hours)
-
-
-
-
-